createdAt,value
2023-03-24T00:04:34.768Z,101151.15
2023-03-24T00:07:05.305Z,101154.81
2023-03-24T00:09:33.984Z,101157.09
2023-03-24T00:12:02.285Z,101155.37
2023-03-24T00:14:38.940Z,101151.88
2023-03-24T00:17:12.866Z,101153.98
2023-03-24T00:19:41.576Z,101152.23
2023-03-24T00:22:14.781Z,101154.67
2023-03-24T00:24:47.237Z,101150.84
2023-03-24T00:27:17.793Z,101148.58
2023-03-24T00:29:47.411Z,101148.23
2023-03-24T00:32:16.189Z,101149.80
2023-03-24T00:34:44.584Z,101147.36
2023-03-24T00:37:13.411Z,101145.44
2023-03-24T00:39:43.237Z,101143.01
2023-03-24T00:42:19.017Z,101149.09
2023-03-24T00:44:48.082Z,101146.83
2023-03-24T00:47:18.116Z,101146.48
2023-03-24T00:49:46.392Z,101149.09
2023-03-24T00:52:20.522Z,101151.86
2023-03-24T00:54:58.410Z,101155.02
2023-03-24T00:57:30.072Z,101158.14
2023-03-24T01:00:09.519Z,101162.67
2023-03-24T01:02:39.389Z,101162.66
2023-03-24T01:05:09.694Z,101158.48
2023-03-24T01:07:41.815Z,101161.80
2023-03-24T01:10:13.283Z,101161.80
2023-03-24T01:12:45.428Z,101163.88
2023-03-24T01:15:16.318Z,101164.05
2023-03-24T01:17:47.449Z,101164.38
2023-03-24T01:20:16.222Z,101166.80
2023-03-24T01:22:46.430Z,101173.95
2023-03-24T01:25:22.042Z,101171.32
2023-03-24T01:27:54.215Z,101172.36
2023-03-24T01:30:24.821Z,101168.00
2023-03-24T01:32:53.862Z,101166.96
2023-03-24T01:43:02.280Z,101159.98
2023-03-24T01:45:40.417Z,101157.17
2023-03-24T01:48:40.991Z,101155.23
2023-03-24T01:51:14.008Z,101156.44
2023-03-24T01:55:39.354Z,101149.63
2023-03-24T01:58:09.184Z,101157.94
2023-03-24T02:00:49.053Z,101160.88
2023-03-24T02:03:34.352Z,101168.73
2023-03-24T02:06:03.726Z,101173.27
2023-03-24T02:08:38.502Z,101176.77
2023-03-24T02:11:07.098Z,101181.48
2023-03-24T02:13:42.006Z,101181.13
2023-03-24T02:16:20.238Z,101179.55
2023-03-24T02:19:15.279Z,101176.61
2023-03-24T02:21:59.506Z,101176.22
2023-03-24T02:24:31.110Z,101178.62
2023-03-24T02:27:14.683Z,101179.83
2023-03-24T02:29:56.395Z,101181.73
2023-03-24T02:32:43.747Z,101189.88
2023-03-24T02:35:24.501Z,101194.90
2023-03-24T02:38:12.114Z,101197.33
2023-03-24T02:40:43.627Z,101196.83
2023-03-24T02:43:28.551Z,101204.51
2023-03-24T02:46:01.378Z,101213.05
2023-03-24T02:48:38.426Z,101216.89
2023-03-24T02:51:22.128Z,101215.33
2023-03-24T02:54:08.849Z,101216.91
2023-03-24T02:56:53.111Z,101221.77
2023-03-24T02:59:53.713Z,101223.69
2023-03-24T03:02:45.695Z,101222.64
2023-03-24T03:05:32.758Z,101226.46
2023-03-24T03:08:07.107Z,101230.27
2023-03-24T03:10:38.509Z,101226.27
2023-03-24T03:13:25.216Z,101224.71
2023-03-24T03:15:55.991Z,101228.00
2023-03-24T03:18:29.487Z,101226.96
2023-03-24T03:21:07.504Z,101228.55
2023-03-24T03:23:38.961Z,101230.13
2023-03-24T03:26:14.120Z,101230.31
2023-03-24T03:28:50.581Z,101229.67
2023-03-24T03:31:23.974Z,101226.56
2023-03-24T03:34:00.102Z,101231.11
2023-03-24T03:36:34.329Z,101231.65
2023-03-24T03:39:16.322Z,101224.02
2023-03-24T03:41:45.682Z,101224.73
2023-03-24T03:44:14.493Z,101232.05
2023-03-24T03:46:48.246Z,101231.34
2023-03-24T03:49:22.096Z,101227.89
2023-03-24T03:51:57.632Z,101228.05
2023-03-24T03:54:26.457Z,101224.90
2023-03-24T03:56:55.129Z,101222.80
2023-03-24T03:59:31.381Z,101223.16
2023-03-24T04:02:07.787Z,101224.87
2023-03-24T04:05:14.415Z,101229.41
2023-03-24T04:07:52.555Z,101231.52
2023-03-24T04:11:16.878Z,101234.70
2023-03-24T04:14:34.980Z,101246.10
2023-03-24T04:17:45.955Z,101261.46
2023-03-24T04:20:32.896Z,101273.66
2023-03-24T04:23:09.629Z,101291.73
2023-03-24T04:26:21.173Z,101305.95
2023-03-24T04:28:58.421Z,101320.77
2023-03-24T04:31:43.408Z,101330.92
2023-03-24T04:34:39.593Z,101341.75
2023-03-24T04:37:19.715Z,101342.75
2023-03-24T04:40:11.242Z,101339.34
2023-03-24T04:42:47.009Z,101326.08
2023-03-24T04:45:15.797Z,101316.21
2023-03-24T04:48:15.007Z,101304.59
2023-03-24T04:51:01.464Z,101298.38
2023-03-24T04:53:37.296Z,101292.84
2023-03-24T04:56:24.721Z,101288.51
2023-03-24T04:59:07.567Z,101285.94
2023-03-24T05:01:37.885Z,101288.23
2023-03-24T05:04:26.023Z,101289.82
2023-03-24T05:06:54.791Z,101297.67
2023-03-24T05:09:26.036Z,101295.59
2023-03-24T05:12:01.509Z,101300.80
2023-03-24T05:14:35.627Z,101303.19
2023-03-24T05:17:06.023Z,101308.52
2023-03-24T05:19:42.293Z,101311.58
2023-03-24T05:22:11.509Z,101316.39
2023-03-24T05:24:40.910Z,101313.67
2023-03-24T05:27:12.121Z,101314.14
2023-03-24T05:29:40.632Z,101318.45
2023-03-24T05:32:16.300Z,101321.35
2023-03-24T05:34:45.765Z,101327.85
2023-03-24T05:37:17.923Z,101326.61
2023-03-24T05:39:53.279Z,101331.98
2023-03-24T05:42:43.348Z,101338.91
2023-03-24T05:45:13.236Z,101348.50
2023-03-24T05:47:42.233Z,101354.96
2023-03-24T05:50:11.086Z,101358.30
2023-03-24T05:52:42.799Z,101367.99
2023-03-24T05:55:32.218Z,101365.14
2023-03-24T05:58:08.773Z,101365.61
2023-03-24T06:00:43.572Z,101371.46
2023-03-24T06:03:17.715Z,101372.44
2023-03-24T06:05:58.605Z,101375.80
2023-03-24T06:08:34.149Z,101375.37
2023-03-24T06:11:05.700Z,101390.83
2023-03-24T06:13:35.473Z,101401.56
2023-03-24T06:16:07.847Z,101416.73
2023-03-24T06:18:43.505Z,101435.23
2023-03-24T06:21:19.429Z,101456.61
2023-03-24T06:23:58.778Z,101476.49
2023-03-24T06:26:32.106Z,101493.51
2023-03-24T06:29:02.719Z,101509.26
2023-03-24T06:31:37.496Z,101528.30
2023-03-24T06:34:07.031Z,101535.85
2023-03-24T06:36:35.528Z,101551.93
2023-03-24T06:39:06.376Z,101558.11
2023-03-24T06:41:36.034Z,101563.01
2023-03-24T06:44:10.163Z,101567.02
2023-03-24T06:46:40.954Z,101574.40
2023-03-24T06:49:09.697Z,101576.05
2023-03-24T06:51:37.965Z,101582.11
2023-03-24T06:54:06.473Z,101581.94
2023-03-24T06:56:36.621Z,101582.64
2023-03-24T06:59:05.830Z,101586.29
2023-03-24T07:01:36.392Z,101587.61
2023-03-24T07:04:26.227Z,101582.36
2023-03-24T07:07:30.980Z,101575.31
2023-03-24T07:10:22.145Z,101565.27
2023-03-24T07:12:53.518Z,101559.13
2023-03-24T07:15:22.033Z,101551.63
2023-03-24T07:17:55.548Z,101547.89
2023-03-24T07:20:48.560Z,101540.25
2023-03-24T07:23:21.993Z,101530.91
2023-03-24T07:26:10.800Z,101514.61
2023-03-24T07:29:11.885Z,101500.30
2023-03-24T07:32:08.274Z,101489.19
2023-03-24T07:34:37.990Z,101479.95
2023-03-24T07:37:06.631Z,101471.14
2023-03-24T07:39:35.123Z,101464.80
2023-03-24T07:42:04.872Z,101461.31
2023-03-24T07:45:09.253Z,101461.09
2023-03-24T07:47:39.190Z,101464.92
2023-03-24T07:50:12.449Z,101469.27
2023-03-24T07:52:41.965Z,101471.86
2023-03-24T07:55:13.002Z,101472.75
2023-03-24T07:58:10.215Z,101471.77
2023-03-24T08:00:44.983Z,101475.45
2023-03-24T08:03:28.103Z,101473.43
2023-03-24T08:06:47.682Z,101471.09
2023-03-24T08:09:17.944Z,101464.46
2023-03-24T08:11:46.505Z,101453.16
2023-03-24T08:14:14.993Z,101446.38
2023-03-24T08:16:46.422Z,101443.67
2023-03-24T08:19:17.304Z,101433.40
2023-03-24T08:21:48.563Z,101426.12
2023-03-24T08:24:17.735Z,101415.23
2023-03-24T08:26:51.109Z,101413.55
2023-03-24T08:29:19.683Z,101407.61
2023-03-24T08:31:48.001Z,101403.90
2023-03-24T08:34:17.300Z,101403.48
2023-03-24T08:36:46.694Z,101397.70
2023-03-24T08:39:15.497Z,101396.19
2023-03-24T08:41:43.744Z,101398.67
2023-03-24T08:44:14.056Z,101400.40
2023-03-24T08:46:43.512Z,101395.44
2023-03-24T08:49:11.913Z,101394.02
2023-03-24T08:51:40.143Z,101390.35
2023-03-24T08:54:09.711Z,101383.38
2023-03-24T08:56:38.062Z,101377.15
2023-03-24T08:59:07.136Z,101368.39
2023-03-24T09:01:35.758Z,101355.02
2023-03-24T09:04:04.262Z,101345.08
2023-03-24T09:06:32.964Z,101338.60
2023-03-24T09:09:01.592Z,101325.79
2023-03-24T09:11:38.680Z,101315.05
2023-03-24T09:14:11.120Z,101300.70
2023-03-24T09:16:39.494Z,101277.48
2023-03-24T09:19:34.376Z,101260.79
2023-03-24T09:22:07.365Z,101248.29
2023-03-24T09:24:35.880Z,101249.06
2023-03-24T09:27:04.508Z,101244.52
2023-03-24T09:29:33.309Z,101234.60
2023-03-24T09:32:05.214Z,101224.13
2023-03-24T09:34:33.960Z,101216.09
2023-03-24T09:37:02.245Z,101207.73
2023-03-24T09:39:32.471Z,101205.40
2023-03-24T09:42:06.187Z,101194.27
2023-03-24T09:44:38.214Z,101185.42
2023-03-24T09:47:17.164Z,101182.45
2023-03-24T09:49:51.184Z,101173.07
2023-03-24T09:52:50.890Z,101158.97
2023-03-24T09:55:23.298Z,101143.15
2023-03-24T09:57:52.073Z,101129.05
2023-03-24T10:00:49.069Z,101121.70
2023-03-24T10:03:23.356Z,101102.24
2023-03-24T10:06:09.205Z,101089.77
2023-03-24T10:08:44.823Z,101083.43
2023-03-24T10:11:25.809Z,101085.31
2023-03-24T10:14:12.795Z,101088.52
2023-03-24T10:17:06.559Z,101093.14
2023-03-24T10:19:44.889Z,101092.14
2023-03-24T10:22:32.894Z,101083.21
2023-03-24T10:25:16.700Z,101067.34
2023-03-24T10:27:58.240Z,101046.04
2023-03-24T10:30:40.000Z,101021.91
2023-03-24T10:33:13.484Z,101011.70
2023-03-24T10:36:06.429Z,101013.54
2023-03-24T10:38:45.706Z,101009.13
2023-03-24T10:41:19.447Z,101005.65
2023-03-24T10:43:48.679Z,101000.91
2023-03-24T10:46:22.470Z,100998.63
2023-03-24T10:49:12.316Z,100993.80
2023-03-24T10:51:49.870Z,100990.25
2023-03-24T10:54:26.195Z,100978.98
2023-03-24T10:56:59.346Z,100967.08
2023-03-24T10:59:32.355Z,100956.38
2023-03-24T11:02:11.622Z,100950.23
2023-03-24T11:04:44.203Z,100941.48
2023-03-24T11:07:12.706Z,100935.72
2023-03-24T11:09:42.450Z,100933.78
2023-03-24T11:12:44.984Z,100928.63
2023-03-24T11:15:21.787Z,100913.42
2023-03-24T11:18:25.764Z,100907.08
2023-03-24T11:21:08.200Z,100895.64
2023-03-24T11:23:40.746Z,100877.05
2023-03-24T11:26:19.719Z,100866.77
2023-03-24T11:28:50.272Z,100857.64
2023-03-24T11:31:39.417Z,100843.78
2023-03-24T11:34:20.106Z,100825.86
2023-03-24T11:36:49.762Z,100827.84
2023-03-24T11:39:19.759Z,100818.61
2023-03-24T11:41:52.716Z,100810.58
2023-03-24T11:44:25.424Z,100806.98
2023-03-24T11:46:56.434Z,100807.45
2023-03-24T11:49:38.640Z,100806.47
2023-03-24T11:52:10.163Z,100801.46
2023-03-24T11:54:38.705Z,100803.16
2023-03-24T11:57:12.763Z,100796.20
2023-03-24T11:59:58.399Z,100785.27
2023-03-24T12:02:26.665Z,100780.70
2023-03-24T12:05:14.649Z,100776.31
2023-03-24T12:08:13.819Z,100777.36
2023-03-24T12:11:01.462Z,100771.80
2023-03-24T12:13:39.453Z,100764.95
2023-03-24T12:16:29.959Z,100756.29
2023-03-24T12:19:21.468Z,100749.17
2023-03-24T12:22:00.986Z,100740.48
2023-03-24T12:25:04.999Z,100729.17
2023-03-24T12:27:52.665Z,100722.88
2023-03-24T12:30:51.881Z,100723.55
2023-03-24T12:33:39.524Z,100722.40
2023-03-24T12:36:42.420Z,100718.19
2023-03-24T12:39:32.237Z,100715.15
2023-03-24T12:42:16.534Z,100712.44
2023-03-24T12:45:08.476Z,100707.44
2023-03-24T12:47:41.768Z,100701.56
2023-03-24T12:50:13.747Z,100698.27
2023-03-24T12:53:08.400Z,100692.41
2023-03-24T12:55:41.711Z,100694.32
2023-03-24T12:58:32.821Z,100687.95
2023-03-24T13:01:15.089Z,100676.33
2023-03-24T13:04:28.413Z,100666.02
2023-03-24T13:07:14.884Z,100656.83
2023-03-24T13:09:56.243Z,100653.41
2023-03-24T13:12:26.346Z,100635.23
2023-03-24T13:15:12.102Z,100625.58
2023-03-24T13:18:09.084Z,100612.97
2023-03-24T13:20:48.896Z,100603.50
2023-03-24T13:23:28.374Z,100596.66
2023-03-24T13:26:24.660Z,100589.86
2023-03-24T13:29:38.698Z,100587.76
2023-03-24T13:32:25.322Z,100580.91
2023-03-24T13:35:10.331Z,100574.77
2023-03-24T13:37:51.362Z,100568.98
2023-03-24T13:40:25.739Z,100561.17
2023-03-24T13:42:58.674Z,100561.40
2023-03-24T13:45:49.779Z,100552.39
2023-03-24T13:48:22.958Z,100542.50
2023-03-24T13:50:58.779Z,100534.09
2023-03-24T13:53:40.565Z,100526.72
2023-03-24T13:56:09.272Z,100521.05
2023-03-24T13:58:59.528Z,100517.66
2023-03-24T14:01:39.479Z,100512.90
2023-03-24T14:04:23.402Z,100505.11
2023-03-24T14:06:56.655Z,100505.84
2023-03-24T14:09:29.892Z,100501.34
2023-03-24T14:13:36.264Z,100480.52
2023-03-24T14:16:33.896Z,100478.80
2023-03-24T14:22:45.268Z,100459.64
2023-03-24T14:25:16.628Z,100448.70
2023-03-24T14:28:06.653Z,100447.63
2023-03-24T14:30:38.432Z,100435.28
2023-03-24T14:33:53.015Z,100437.08
2023-03-24T14:36:40.026Z,100425.60
2023-03-24T14:39:24.098Z,100414.45
2023-03-24T14:41:53.226Z,100408.29
2023-03-24T14:44:47.445Z,100403.98
2023-03-24T14:47:24.049Z,100396.18
2023-03-24T14:49:54.111Z,100394.80
2023-03-24T14:52:39.995Z,100397.52
2023-03-24T14:55:40.333Z,100401.83
2023-03-24T14:58:31.092Z,100423.98
2023-03-24T15:01:26.925Z,100415.90
2023-03-24T15:04:05.343Z,100411.63
2023-03-24T15:06:34.367Z,100407.41
2023-03-24T15:09:28.277Z,100398.89
2023-03-24T15:12:02.059Z,100394.23
2023-03-24T15:14:36.406Z,100386.02
2023-03-24T15:17:09.050Z,100378.77
2023-03-24T15:19:37.665Z,100376.61
2023-03-24T15:22:13.462Z,100375.42
2023-03-24T15:24:42.776Z,100375.08
2023-03-24T15:27:17.784Z,100374.48
2023-03-24T15:29:47.205Z,100371.88
2023-03-24T15:32:46.467Z,100375.46
2023-03-24T15:35:22.587Z,100377.70
2023-03-24T15:37:53.064Z,100377.94
2023-03-24T15:40:27.307Z,100372.21
2023-03-24T15:43:05.417Z,100372.45
2023-03-24T15:46:04.796Z,100367.66
2023-03-24T15:48:41.274Z,100363.38
2023-03-24T15:51:15.519Z,100361.95
2023-03-24T15:53:58.332Z,100364.04
2023-03-24T15:56:27.658Z,100363.95
2023-03-24T15:59:22.776Z,100364.09
2023-03-24T16:01:55.891Z,100365.42
2023-03-24T16:04:28.888Z,100363.61
2023-03-24T16:06:58.016Z,100367.37
2023-03-24T16:09:27.831Z,100368.17
2023-03-24T16:11:56.524Z,100370.18
2023-03-24T16:14:30.784Z,100370.77
2023-03-24T16:17:01.186Z,100373.14
2023-03-24T16:19:29.795Z,100378.32
2023-03-24T16:21:58.124Z,100380.43
2023-03-24T16:24:28.478Z,100381.89
2023-03-24T16:26:57.027Z,100387.95
2023-03-24T16:29:25.565Z,100389.45
2023-03-24T16:31:56.320Z,100391.43
2023-03-24T16:34:24.696Z,100398.41
2023-03-24T16:36:54.611Z,100396.73
2023-03-24T16:39:27.763Z,100396.72
2023-03-24T16:42:01.366Z,100401.08
2023-03-24T16:44:29.943Z,100401.48
2023-03-24T16:46:58.249Z,100401.65
2023-03-24T16:49:27.464Z,100403.45
2023-03-24T16:51:56.279Z,100406.62
2023-03-24T16:54:25.614Z,100406.88
2023-03-24T16:56:54.560Z,100409.48
2023-03-24T16:59:27.399Z,100409.59
2023-03-24T17:01:56.519Z,100413.08
2023-03-24T17:04:27.530Z,100411.91
2023-03-24T17:06:57.752Z,100410.14
2023-03-24T17:09:28.889Z,100409.22
2023-03-24T17:11:57.663Z,100413.30
2023-03-24T17:14:33.449Z,100419.14
2023-03-24T17:17:04.581Z,100420.71
2023-03-24T17:19:33.229Z,100425.61
2023-03-24T17:22:06.806Z,100431.63
2023-03-24T17:24:38.321Z,100432.88
2023-03-24T17:27:18.917Z,100433.95
2023-03-24T17:29:51.308Z,100441.68
2023-03-24T17:32:22.385Z,100444.30
2023-03-24T17:34:57.134Z,100448.20
2023-03-24T17:37:27.161Z,100451.30
2023-03-24T17:40:01.150Z,100457.46
2023-03-24T17:42:29.587Z,100464.14
2023-03-24T17:44:58.109Z,100472.13
2023-03-24T17:47:55.621Z,100475.73
2023-03-24T17:50:38.864Z,100479.48
2023-03-24T17:53:16.212Z,100482.45
2023-03-24T17:55:44.883Z,100487.67
2023-03-24T17:58:13.449Z,100490.56
2023-03-24T18:00:42.294Z,100496.17
2023-03-24T18:03:12.061Z,100500.49
2023-03-24T18:05:44.945Z,100511.33
2023-03-24T18:08:13.753Z,100516.27
2023-03-24T18:10:45.349Z,100520.04
2023-03-24T18:13:15.662Z,100523.26
2023-03-24T18:16:39.902Z,100523.48
2023-03-24T18:19:09.188Z,100523.22
2023-03-24T18:21:39.949Z,100525.46
2023-03-24T18:24:34.811Z,100532.62
2023-03-24T18:27:04.185Z,100540.86
2023-03-24T18:29:33.422Z,100547.48
2023-03-24T18:32:05.247Z,100550.37
2023-03-24T18:34:39.135Z,100553.80
2023-03-24T18:37:07.766Z,100557.04
2023-03-24T18:39:36.656Z,100559.70
2023-03-24T18:42:05.975Z,100568.20
2023-03-24T18:44:34.825Z,100571.05
2023-03-24T18:47:07.883Z,100580.09
2023-03-24T18:49:41.698Z,100588.99
2023-03-24T18:52:10.812Z,100593.29
2023-03-24T18:54:40.856Z,100601.18
2023-03-24T18:57:09.324Z,100609.96
2023-03-24T18:59:45.827Z,100615.80
2023-03-24T19:02:16.376Z,100618.08
2023-03-24T19:04:47.560Z,100627.34
2023-03-24T19:07:24.698Z,100635.60
2023-03-24T19:09:54.696Z,100642.27
2023-03-24T19:12:23.126Z,100651.84
2023-03-24T19:14:54.306Z,100659.86
2023-03-24T19:17:27.666Z,100670.71
2023-03-24T19:19:58.434Z,100677.20
2023-03-24T19:22:27.493Z,100688.94
2023-03-24T19:24:56.228Z,100699.59
2023-03-24T19:27:31.084Z,100709.15
2023-03-24T19:30:00.049Z,100712.91
2023-03-24T19:32:28.406Z,100713.48
2023-03-24T19:34:57.284Z,100716.83
2023-03-24T19:37:26.644Z,100735.50
2023-03-24T19:39:55.077Z,100744.69
2023-03-24T19:42:25.744Z,100769.06
2023-03-24T19:44:54.983Z,100793.46
2023-03-24T19:47:24.283Z,100794.85
2023-03-24T19:49:56.974Z,100793.55
2023-03-24T19:52:26.501Z,100798.54
2023-03-24T19:54:54.898Z,100794.55
2023-03-24T19:57:23.336Z,100802.58
2023-03-24T19:59:51.754Z,100806.73
2023-03-24T20:02:22.035Z,100810.30
2023-03-24T20:04:51.141Z,100778.15
2023-03-24T20:07:20.358Z,100769.49
2023-03-24T20:09:48.794Z,100749.71
2023-03-24T20:12:17.251Z,100752.55
2023-03-24T20:14:46.679Z,100754.54
2023-03-24T20:17:18.106Z,100752.11
2023-03-24T20:19:47.895Z,100731.97
2023-03-24T20:22:16.401Z,100724.69
2023-03-24T20:24:48.360Z,100724.70
2023-03-24T20:27:18.977Z,100726.52
2023-03-24T20:30:13.282Z,100728.69
2023-03-24T20:32:42.312Z,100726.09
2023-03-24T20:35:11.988Z,100724.61
2023-03-24T20:37:40.645Z,100724.30
2023-03-24T20:40:14.925Z,100723.86
2023-03-24T20:42:44.349Z,100722.11
2023-03-24T20:45:12.706Z,100718.25
2023-03-24T20:47:44.675Z,100717.48
2023-03-24T20:50:17.382Z,100718.48
2023-03-24T20:52:47.648Z,100721.17
2023-03-24T20:55:39.286Z,100721.28
2023-03-24T21:05:51.719Z,100711.90
2023-03-24T21:08:24.638Z,100717.27
2023-03-24T21:11:44.036Z,100716.08
2023-03-24T21:14:12.749Z,100719.04
2023-03-24T21:16:40.997Z,100713.55
2023-03-24T21:19:13.623Z,100711.94
2023-03-24T21:21:45.922Z,100712.40
2023-03-24T21:24:15.659Z,100707.95
2023-03-24T21:26:46.812Z,100705.57
2023-03-24T21:29:19.289Z,100705.55
2023-03-24T21:31:48.707Z,100708.54
2023-03-24T21:34:17.502Z,100708.20
2023-03-24T21:36:49.791Z,100705.39
2023-03-24T21:39:18.906Z,100707.16
2023-03-24T21:41:48.264Z,100707.14
2023-03-24T21:44:25.534Z,100714.48
2023-03-24T21:46:54.738Z,100712.73
2023-03-24T21:49:23.748Z,100706.66
2023-03-24T21:51:55.199Z,100710.36
2023-03-24T21:54:26.927Z,100710.30
2023-03-24T21:56:55.562Z,100713.54
2023-03-24T21:59:24.587Z,100711.13
2023-03-24T22:01:57.693Z,100709.06
2023-03-24T22:04:27.917Z,100707.59
2023-03-24T22:07:22.798Z,100709.77
2023-03-24T22:09:52.566Z,100711.54
2023-03-24T22:12:20.964Z,100712.48
2023-03-24T22:14:52.829Z,100712.52
2023-03-24T22:17:23.428Z,100716.29
2023-03-24T22:19:53.588Z,100716.52
2023-03-24T22:22:27.600Z,100726.83
2023-03-24T22:24:56.462Z,100730.80
2023-03-24T22:27:25.086Z,100731.70
2023-03-24T22:29:53.379Z,100734.75
2023-03-24T22:32:21.548Z,100733.05
2023-03-24T22:34:55.686Z,100732.05
2023-03-24T22:37:54.652Z,100733.21
2023-03-24T22:40:48.251Z,100729.16
2023-03-24T22:43:18.059Z,100727.00
2023-03-24T22:45:46.376Z,100730.98
2023-03-24T22:48:17.936Z,100728.73
2023-03-24T22:50:48.562Z,100732.49
2023-03-24T22:53:18.368Z,100731.67
2023-03-24T22:55:47.409Z,100721.88
2023-03-24T22:58:16.143Z,100722.46
2023-03-24T23:00:47.033Z,100723.24
2023-03-24T23:03:15.811Z,100723.70
2023-03-24T23:05:45.739Z,100725.75
2023-03-24T23:08:15.457Z,100721.34
2023-03-24T23:10:44.572Z,100723.92
2023-03-24T23:13:19.139Z,100724.39
2023-03-24T23:16:07.982Z,100734.58
2023-03-24T23:18:38.606Z,100734.03
2023-03-24T23:21:09.446Z,100735.42
2023-03-24T23:23:38.467Z,100730.82
2023-03-24T23:26:07.221Z,100729.16
2023-03-24T23:28:37.345Z,100726.96
2023-03-24T23:31:16.484Z,100722.67
2023-03-24T23:33:45.271Z,100719.59
2023-03-24T23:36:19.138Z,100720.71
2023-03-24T23:38:54.863Z,100715.89
2023-03-24T23:41:24.777Z,100716.14
2023-03-24T23:43:53.419Z,100720.27
2023-03-24T23:46:24.078Z,100714.36
2023-03-24T23:48:53.003Z,100715.34
2023-03-24T23:51:25.005Z,100715.39
2023-03-24T23:53:53.321Z,100710.19
2023-03-24T23:56:23.068Z,100715.35
2023-03-24T23:58:52.465Z,100719.45
